sensor_id;sensor_type;location;lat;lon;timestamp;temperature;humidity
47576;DHT22;33304;52.456;13.328;2023-05-19T00:02:21;11.20;17.40
47576;DHT22;33304;52.456;13.328;2023-05-19T00:04:51;11.10;17.30
47576;DHT22;33304;52.456;13.328;2023-05-19T00:07:18;11.10;17.30
47576;DHT22;33304;52.456;13.328;2023-05-19T00:09:48;11.10;17.40
47576;DHT22;33304;52.456;13.328;2023-05-19T00:12:18;11.00;17.40
47576;DHT22;33304;52.456;13.328;2023-05-19T00:14:47;10.90;17.60
47576;DHT22;33304;52.456;13.328;2023-05-19T00:17:15;11.00;17.80
47576;DHT22;33304;52.456;13.328;2023-05-19T00:19:42;10.90;17.90
47576;DHT22;33304;52.456;13.328;2023-05-19T00:22:10;10.80;18.00
47576;DHT22;33304;52.456;13.328;2023-05-19T00:24:37;10.90;17.90
47576;DHT22;33304;52.456;13.328;2023-05-19T00:27:04;10.80;17.80
47576;DHT22;33304;52.456;13.328;2023-05-19T00:29:31;10.80;17.80
47576;DHT22;33304;52.456;13.328;2023-05-19T00:31:59;10.80;17.80
47576;DHT22;33304;52.456;13.328;2023-05-19T00:34:26;10.80;17.80
47576;DHT22;33304;52.456;13.328;2023-05-19T00:36:53;10.80;17.80
47576;DHT22;33304;52.456;13.328;2023-05-19T00:39:20;10.80;17.80
47576;DHT22;33304;52.456;13.328;2023-05-19T00:41:47;10.80;17.70
47576;DHT22;33304;52.456;13.328;2023-05-19T00:44:15;10.80;17.50
47576;DHT22;33304;52.456;13.328;2023-05-19T00:46:42;10.80;17.80
47576;DHT22;33304;52.456;13.328;2023-05-19T00:49:10;10.80;17.60
47576;DHT22;33304;52.456;13.328;2023-05-19T00:51:37;10.70;17.70
47576;DHT22;33304;52.456;13.328;2023-05-19T00:54:04;10.60;17.70
47576;DHT22;33304;52.456;13.328;2023-05-19T00:56:32;10.70;17.80
47576;DHT22;33304;52.456;13.328;2023-05-19T00:58:59;10.60;18.00
47576;DHT22;33304;52.456;13.328;2023-05-19T01:01:26;10.60;17.90
47576;DHT22;33304;52.456;13.328;2023-05-19T01:03:54;10.70;17.50
47576;DHT22;33304;52.456;13.328;2023-05-19T01:06:25;10.60;17.60
47576;DHT22;33304;52.456;13.328;2023-05-19T01:08:53;10.70;17.70
47576;DHT22;33304;52.456;13.328;2023-05-19T01:11:20;10.60;17.60
47576;DHT22;33304;52.456;13.328;2023-05-19T01:13:47;10.60;17.70
47576;DHT22;33304;52.456;13.328;2023-05-19T01:16:23;10.60;17.60
47576;DHT22;33304;52.456;13.328;2023-05-19T01:18:57;10.50;17.60
47576;DHT22;33304;52.456;13.328;2023-05-19T01:21:56;10.40;18.00
47576;DHT22;33304;52.456;13.328;2023-05-19T01:24:44;10.40;18.00
47576;DHT22;33304;52.456;13.328;2023-05-19T01:27:42;10.40;18.20
47576;DHT22;33304;52.456;13.328;2023-05-19T01:30:29;10.40;18.10
47576;DHT22;33304;52.456;13.328;2023-05-19T01:32:59;10.40;18.20
47576;DHT22;33304;52.456;13.328;2023-05-19T01:35:27;10.30;18.20
47576;DHT22;33304;52.456;13.328;2023-05-19T01:37:59;10.30;18.40
47576;DHT22;33304;52.456;13.328;2023-05-19T01:40:28;10.30;18.20
47576;DHT22;33304;52.456;13.328;2023-05-19T01:42:57;10.30;18.20
47576;DHT22;33304;52.456;13.328;2023-05-19T01:45:27;10.30;18.10
47576;DHT22;33304;52.456;13.328;2023-05-19T01:47:57;10.40;18.20
47576;DHT22;33304;52.456;13.328;2023-05-19T01:50:25;10.30;18.70
47576;DHT22;33304;52.456;13.328;2023-05-19T01:52:53;10.20;18.30
47576;DHT22;33304;52.456;13.328;2023-05-19T01:55:20;10.40;18.10
47576;DHT22;33304;52.456;13.328;2023-05-19T01:57:56;10.40;18.30
47576;DHT22;33304;52.456;13.328;2023-05-19T02:00:30;10.30;18.40
47576;DHT22;33304;52.456;13.328;2023-05-19T02:03:08;10.40;18.10
47576;DHT22;33304;52.456;13.328;2023-05-19T02:05:48;10.30;18.20
47576;DHT22;33304;52.456;13.328;2023-05-19T02:08:29;10.30;18.20
47576;DHT22;33304;52.456;13.328;2023-05-19T02:11:02;10.30;18.50
47576;DHT22;33304;52.456;13.328;2023-05-19T02:13:35;10.20;18.60
47576;DHT22;33304;52.456;13.328;2023-05-19T02:16:04;10.20;18.70
47576;DHT22;33304;52.456;13.328;2023-05-19T02:18:33;10.20;18.80
47576;DHT22;33304;52.456;13.328;2023-05-19T02:21:01;10.20;18.80
47576;DHT22;33304;52.456;13.328;2023-05-19T02:23:28;10.20;19.50
47576;DHT22;33304;52.456;13.328;2023-05-19T02:25:56;10.10;19.20
47576;DHT22;33304;52.456;13.328;2023-05-19T02:28:24;10.10;19.30
47576;DHT22;33304;52.456;13.328;2023-05-19T02:30:53;10.00;19.30
47576;DHT22;33304;52.456;13.328;2023-05-19T02:33:21;10.10;19.30
47576;DHT22;33304;52.456;13.328;2023-05-19T02:35:52;10.10;19.20
47576;DHT22;33304;52.456;13.328;2023-05-19T02:38:32;10.10;19.50
47576;DHT22;33304;52.456;13.328;2023-05-19T02:41:08;10.00;19.50
47576;DHT22;33304;52.456;13.328;2023-05-19T02:43:35;10.00;19.70
47576;DHT22;33304;52.456;13.328;2023-05-19T02:46:02;9.90;20.50
47576;DHT22;33304;52.456;13.328;2023-05-19T02:48:29;9.90;20.70
47576;DHT22;33304;52.456;13.328;2023-05-19T02:50:58;10.00;19.80
47576;DHT22;33304;52.456;13.328;2023-05-19T02:53:25;9.90;20.70
47576;DHT22;33304;52.456;13.328;2023-05-19T02:55:52;9.90;20.50
47576;DHT22;33304;52.456;13.328;2023-05-19T02:58:19;10.00;19.90
47576;DHT22;33304;52.456;13.328;2023-05-19T03:00:47;10.00;19.70
47576;DHT22;33304;52.456;13.328;2023-05-19T03:03:14;10.00;20.10
47576;DHT22;33304;52.456;13.328;2023-05-19T03:05:41;10.00;19.50
47576;DHT22;33304;52.456;13.328;2023-05-19T03:08:09;10.10;19.60
47576;DHT22;33304;52.456;13.328;2023-05-19T03:10:37;10.10;19.30
47576;DHT22;33304;52.456;13.328;2023-05-19T03:13:04;10.10;19.40
47576;DHT22;33304;52.456;13.328;2023-05-19T03:15:31;10.10;19.40
47576;DHT22;33304;52.456;13.328;2023-05-19T03:17:59;10.10;19.50
47576;DHT22;33304;52.456;13.328;2023-05-19T03:20:26;10.10;19.30
47576;DHT22;33304;52.456;13.328;2023-05-19T03:22:55;10.20;19.30
47576;DHT22;33304;52.456;13.328;2023-05-19T03:25:24;10.20;19.10
47576;DHT22;33304;52.456;13.328;2023-05-19T03:27:51;10.20;19.20
47576;DHT22;33304;52.456;13.328;2023-05-19T03:30:18;10.20;19.30
47576;DHT22;33304;52.456;13.328;2023-05-19T03:32:59;10.20;19.30
47576;DHT22;33304;52.456;13.328;2023-05-19T03:35:27;10.10;19.50
47576;DHT22;33304;52.456;13.328;2023-05-19T03:37:58;10.10;19.30
47576;DHT22;33304;52.456;13.328;2023-05-19T03:40:26;10.00;19.50
47576;DHT22;33304;52.456;13.328;2023-05-19T03:43:00;10.10;19.70
47576;DHT22;33304;52.456;13.328;2023-05-19T03:45:28;10.00;20.00
47576;DHT22;33304;52.456;13.328;2023-05-19T03:47:55;10.10;19.30
47576;DHT22;33304;52.456;13.328;2023-05-19T03:50:39;10.10;19.60
47576;DHT22;33304;52.456;13.328;2023-05-19T03:53:17;10.30;19.40
47576;DHT22;33304;52.456;13.328;2023-05-19T03:55:46;10.20;19.60
47576;DHT22;33304;52.456;13.328;2023-05-19T03:58:14;10.20;19.70
47576;DHT22;33304;52.456;13.328;2023-05-19T04:00:41;10.20;19.70
47576;DHT22;33304;52.456;13.328;2023-05-19T04:03:08;10.30;19.70
47576;DHT22;33304;52.456;13.328;2023-05-19T04:05:35;10.30;19.30
47576;DHT22;33304;52.456;13.328;2023-05-19T04:08:03;10.40;19.50
47576;DHT22;33304;52.456;13.328;2023-05-19T04:10:30;10.40;19.30
47576;DHT22;33304;52.456;13.328;2023-05-19T04:12:59;10.40;19.60
47576;DHT22;33304;52.456;13.328;2023-05-19T04:15:26;10.50;19.60
47576;DHT22;33304;52.456;13.328;2023-05-19T04:17:53;10.40;19.60
47576;DHT22;33304;52.456;13.328;2023-05-19T04:20:23;10.50;19.60
47576;DHT22;33304;52.456;13.328;2023-05-19T04:22:50;10.50;19.60
47576;DHT22;33304;52.456;13.328;2023-05-19T04:25:17;10.60;19.60
47576;DHT22;33304;52.456;13.328;2023-05-19T04:27:45;10.60;19.20
47576;DHT22;33304;52.456;13.328;2023-05-19T04:30:15;10.70;19.40
47576;DHT22;33304;52.456;13.328;2023-05-19T04:32:47;10.70;19.40
47576;DHT22;33304;52.456;13.328;2023-05-19T04:35:15;10.70;19.20
47576;DHT22;33304;52.456;13.328;2023-05-19T04:37:43;10.70;19.10
47576;DHT22;33304;52.456;13.328;2023-05-19T04:40:13;10.80;19.10
47576;DHT22;33304;52.456;13.328;2023-05-19T04:42:40;10.80;19.10
47576;DHT22;33304;52.456;13.328;2023-05-19T04:45:14;10.90;19.00
47576;DHT22;33304;52.456;13.328;2023-05-19T04:47:45;10.80;18.90
47576;DHT22;33304;52.456;13.328;2023-05-19T04:50:13;10.80;19.30
47576;DHT22;33304;52.456;13.328;2023-05-19T04:52:41;10.90;19.40
47576;DHT22;33304;52.456;13.328;2023-05-19T04:55:10;11.00;19.30
47576;DHT22;33304;52.456;13.328;2023-05-19T04:57:38;11.00;19.60
47576;DHT22;33304;52.456;13.328;2023-05-19T05:00:07;11.10;19.40
47576;DHT22;33304;52.456;13.328;2023-05-19T05:02:47;11.10;19.20
47576;DHT22;33304;52.456;13.328;2023-05-19T05:05:17;11.10;19.30
47576;DHT22;33304;52.456;13.328;2023-05-19T05:07:45;11.10;19.30
47576;DHT22;33304;52.456;13.328;2023-05-19T05:10:12;11.10;19.30
47576;DHT22;33304;52.456;13.328;2023-05-19T05:12:40;11.10;19.30
47576;DHT22;33304;52.456;13.328;2023-05-19T05:15:11;11.10;19.30
47576;DHT22;33304;52.456;13.328;2023-05-19T05:17:40;11.20;19.30
47576;DHT22;33304;52.456;13.328;2023-05-19T05:20:11;11.30;19.30
47576;DHT22;33304;52.456;13.328;2023-05-19T05:22:39;11.30;19.30
47576;DHT22;33304;52.456;13.328;2023-05-19T05:25:09;11.30;19.50
47576;DHT22;33304;52.456;13.328;2023-05-19T05:27:37;11.40;19.80
47576;DHT22;33304;52.456;13.328;2023-05-19T05:30:08;11.50;19.40
47576;DHT22;33304;52.456;13.328;2023-05-19T05:32:36;11.60;19.00
47576;DHT22;33304;52.456;13.328;2023-05-19T05:35:10;11.60;19.00
47576;DHT22;33304;52.456;13.328;2023-05-19T05:37:41;11.60;18.80
47576;DHT22;33304;52.456;13.328;2023-05-19T05:40:09;11.60;18.90
47576;DHT22;33304;52.456;13.328;2023-05-19T05:42:44;11.60;18.80
47576;DHT22;33304;52.456;13.328;2023-05-19T05:45:11;11.70;18.90
47576;DHT22;33304;52.456;13.328;2023-05-19T05:47:39;11.80;18.90
47576;DHT22;33304;52.456;13.328;2023-05-19T05:50:11;11.80;18.50
47576;DHT22;33304;52.456;13.328;2023-05-19T05:52:40;11.90;18.40
47576;DHT22;33304;52.456;13.328;2023-05-19T05:55:09;11.90;18.40
47576;DHT22;33304;52.456;13.328;2023-05-19T05:57:39;12.00;19.20
47576;DHT22;33304;52.456;13.328;2023-05-19T06:00:09;12.00;18.50
47576;DHT22;33304;52.456;13.328;2023-05-19T06:02:50;12.00;17.90
47576;DHT22;33304;52.456;13.328;2023-05-19T06:05:20;12.10;18.20
47576;DHT22;33304;52.456;13.328;2023-05-19T06:07:50;12.00;18.10
47576;DHT22;33304;52.456;13.328;2023-05-19T06:10:22;12.20;17.90
47576;DHT22;33304;52.456;13.328;2023-05-19T06:12:49;12.40;18.00
47576;DHT22;33304;52.456;13.328;2023-05-19T06:15:17;12.50;17.40
47576;DHT22;33304;52.456;13.328;2023-05-19T06:18:04;12.80;17.20
47576;DHT22;33304;52.456;13.328;2023-05-19T06:20:33;13.10;15.80
47576;DHT22;33304;52.456;13.328;2023-05-19T06:23:00;13.40;15.50
47576;DHT22;33304;52.456;13.328;2023-05-19T06:25:28;13.50;14.80
47576;DHT22;33304;52.456;13.328;2023-05-19T06:27:56;13.80;15.00
47576;DHT22;33304;52.456;13.328;2023-05-19T06:30:23;14.00;14.60
47576;DHT22;33304;52.456;13.328;2023-05-19T06:33:17;14.40;14.20
47576;DHT22;33304;52.456;13.328;2023-05-19T06:35:45;14.70;13.60
47576;DHT22;33304;52.456;13.328;2023-05-19T06:38:13;14.90;13.50
47576;DHT22;33304;52.456;13.328;2023-05-19T06:40:41;14.80;12.50
47576;DHT22;33304;52.456;13.328;2023-05-19T06:43:08;15.10;12.20
47576;DHT22;33304;52.456;13.328;2023-05-19T06:45:55;15.00;11.90
47576;DHT22;33304;52.456;13.328;2023-05-19T06:48:24;15.00;12.10
47576;DHT22;33304;52.456;13.328;2023-05-19T06:50:53;14.90;12.10
47576;DHT22;33304;52.456;13.328;2023-05-19T06:53:21;15.00;12.10
47576;DHT22;33304;52.456;13.328;2023-05-19T06:55:50;15.10;12.00
47576;DHT22;33304;52.456;13.328;2023-05-19T06:58:20;15.20;11.40
47576;DHT22;33304;52.456;13.328;2023-05-19T07:00:48;15.20;11.50
47576;DHT22;33304;52.456;13.328;2023-05-19T07:03:16;15.10;12.00
47576;DHT22;33304;52.456;13.328;2023-05-19T07:05:44;15.00;12.00
47576;DHT22;33304;52.456;13.328;2023-05-19T07:08:12;14.90;12.30
47576;DHT22;33304;52.456;13.328;2023-05-19T07:10:39;15.00;12.20
47576;DHT22;33304;52.456;13.328;2023-05-19T07:13:11;15.30;12.40
47576;DHT22;33304;52.456;13.328;2023-05-19T07:15:40;15.10;12.60
47576;DHT22;33304;52.456;13.328;2023-05-19T07:18:08;15.30;12.50
47576;DHT22;33304;52.456;13.328;2023-05-19T07:20:35;15.40;12.00
47576;DHT22;33304;52.456;13.328;2023-05-19T07:23:03;15.60;11.90
47576;DHT22;33304;52.456;13.328;2023-05-19T07:25:32;15.60;11.30
47576;DHT22;33304;52.456;13.328;2023-05-19T07:27:59;15.70;10.90
47576;DHT22;33304;52.456;13.328;2023-05-19T07:30:26;15.70;11.10
47576;DHT22;33304;52.456;13.328;2023-05-19T07:32:53;15.80;11.30
47576;DHT22;33304;52.456;13.328;2023-05-19T07:35:24;15.90;10.70
47576;DHT22;33304;52.456;13.328;2023-05-19T07:37:51;16.00;11.20
47576;DHT22;33304;52.456;13.328;2023-05-19T07:40:18;16.10;11.30
47576;DHT22;33304;52.456;13.328;2023-05-19T07:42:49;16.10;10.20
47576;DHT22;33304;52.456;13.328;2023-05-19T07:45:17;16.10;9.90
47576;DHT22;33304;52.456;13.328;2023-05-19T07:47:44;16.20;10.20
47576;DHT22;33304;52.456;13.328;2023-05-19T07:50:11;16.20;10.80
47576;DHT22;33304;52.456;13.328;2023-05-19T07:52:38;16.10;9.60
47576;DHT22;33304;52.456;13.328;2023-05-19T07:55:08;16.20;9.60
47576;DHT22;33304;52.456;13.328;2023-05-19T07:57:44;16.20;9.90
47576;DHT22;33304;52.456;13.328;2023-05-19T08:00:13;16.30;9.70
47576;DHT22;33304;52.456;13.328;2023-05-19T08:02:41;16.40;10.00
47576;DHT22;33304;52.456;13.328;2023-05-19T08:05:08;16.50;8.50
47576;DHT22;33304;52.456;13.328;2023-05-19T08:07:36;16.60;8.20
47576;DHT22;33304;52.456;13.328;2023-05-19T08:10:04;16.60;8.00
47576;DHT22;33304;52.456;13.328;2023-05-19T08:12:31;16.60;8.30
47576;DHT22;33304;52.456;13.328;2023-05-19T08:15:00;16.70;8.80
47576;DHT22;33304;52.456;13.328;2023-05-19T08:17:28;16.80;8.50
47576;DHT22;33304;52.456;13.328;2023-05-19T08:19:55;16.90;8.50
47576;DHT22;33304;52.456;13.328;2023-05-19T08:22:26;17.10;7.80
47576;DHT22;33304;52.456;13.328;2023-05-19T08:24:53;17.20;7.40
47576;DHT22;33304;52.456;13.328;2023-05-19T08:27:21;17.30;7.40
47576;DHT22;33304;52.456;13.328;2023-05-19T08:29:49;17.40;7.50
47576;DHT22;33304;52.456;13.328;2023-05-19T08:32:16;17.50;7.60
47576;DHT22;33304;52.456;13.328;2023-05-19T08:34:45;17.40;6.70
47576;DHT22;33304;52.456;13.328;2023-05-19T08:37:18;17.60;6.50
47576;DHT22;33304;52.456;13.328;2023-05-19T08:39:48;17.90;6.40
47576;DHT22;33304;52.456;13.328;2023-05-19T08:42:15;18.10;6.40
47576;DHT22;33304;52.456;13.328;2023-05-19T08:44:42;18.30;5.50
47576;DHT22;33304;52.456;13.328;2023-05-19T08:47:09;18.40;4.60
47576;DHT22;33304;52.456;13.328;2023-05-19T08:49:43;18.40;4.70
47576;DHT22;33304;52.456;13.328;2023-05-19T08:52:21;18.20;5.20
47576;DHT22;33304;52.456;13.328;2023-05-19T08:54:54;18.10;4.20
47576;DHT22;33304;52.456;13.328;2023-05-19T08:57:26;18.10;5.10
47576;DHT22;33304;52.456;13.328;2023-05-19T08:59:54;18.20;4.00
47576;DHT22;33304;52.456;13.328;2023-05-19T09:02:22;18.20;3.80
47576;DHT22;33304;52.456;13.328;2023-05-19T09:04:49;18.20;3.90
47576;DHT22;33304;52.456;13.328;2023-05-19T09:07:19;18.20;3.70
47576;DHT22;33304;52.456;13.328;2023-05-19T09:09:50;17.90;3.70
47576;DHT22;33304;52.456;13.328;2023-05-19T09:12:24;18.00;4.60
47576;DHT22;33304;52.456;13.328;2023-05-19T09:14:51;18.10;3.20
47576;DHT22;33304;52.456;13.328;2023-05-19T09:17:18;18.00;3.30
47576;DHT22;33304;52.456;13.328;2023-05-19T09:19:49;18.00;3.40
47576;DHT22;33304;52.456;13.328;2023-05-19T09:22:20;18.10;2.80
47576;DHT22;33304;52.456;13.328;2023-05-19T09:24:52;18.20;3.70
47576;DHT22;33304;52.456;13.328;2023-05-19T09:27:20;18.40;3.20
47576;DHT22;33304;52.456;13.328;2023-05-19T09:29:48;18.60;2.40
47576;DHT22;33304;52.456;13.328;2023-05-19T09:32:23;18.60;1.50
47576;DHT22;33304;52.456;13.328;2023-05-19T09:34:52;18.70;1.20
47576;DHT22;33304;52.456;13.328;2023-05-19T09:37:22;18.90;1.00
47576;DHT22;33304;52.456;13.328;2023-05-19T09:39:50;18.80;1.00
47576;DHT22;33304;52.456;13.328;2023-05-19T09:42:23;18.70;1.00
47576;DHT22;33304;52.456;13.328;2023-05-19T09:44:58;18.60;1.50
47576;DHT22;33304;52.456;13.328;2023-05-19T09:47:25;18.70;1.00
47576;DHT22;33304;52.456;13.328;2023-05-19T09:49:53;18.80;1.00
47576;DHT22;33304;52.456;13.328;2023-05-19T09:52:23;18.60;1.00
47576;DHT22;33304;52.456;13.328;2023-05-19T09:54:53;18.30;1.40
47576;DHT22;33304;52.456;13.328;2023-05-19T09:57:24;18.20;1.40
47576;DHT22;33304;52.456;13.328;2023-05-19T09:59:54;18.20;1.30
47576;DHT22;33304;52.456;13.328;2023-05-19T10:02:22;18.20;1.00
47576;DHT22;33304;52.456;13.328;2023-05-19T10:04:51;18.20;1.00
47576;DHT22;33304;52.456;13.328;2023-05-19T10:07:19;18.20;1.00
47576;DHT22;33304;52.456;13.328;2023-05-19T10:09:52;18.40;1.00
47576;DHT22;33304;52.456;13.328;2023-05-19T10:12:20;18.40;1.00
47576;DHT22;33304;52.456;13.328;2023-05-19T10:14:47;18.40;1.00
47576;DHT22;33304;52.456;13.328;2023-05-19T10:17:15;18.30;1.00
47576;DHT22;33304;52.456;13.328;2023-05-19T10:19:43;18.60;1.00
47576;DHT22;33304;52.456;13.328;2023-05-19T10:22:10;18.90;1.00
47576;DHT22;33304;52.456;13.328;2023-05-19T10:24:38;19.00;1.00
47576;DHT22;33304;52.456;13.328;2023-05-19T10:27:09;19.10;1.00
47576;DHT22;33304;52.456;13.328;2023-05-19T10:29:41;18.90;1.00
47576;DHT22;33304;52.456;13.328;2023-05-19T10:32:15;18.80;1.00
47576;DHT22;33304;52.456;13.328;2023-05-19T10:35:01;18.80;1.00
47576;DHT22;33304;52.456;13.328;2023-05-19T10:37:40;18.80;1.00
47576;DHT22;33304;52.456;13.328;2023-05-19T10:40:17;18.70;1.00
47576;DHT22;33304;52.456;13.328;2023-05-19T10:43:06;18.90;1.00
47576;DHT22;33304;52.456;13.328;2023-05-19T10:45:43;19.20;1.00
47576;DHT22;33304;52.456;13.328;2023-05-19T10:48:13;19.10;1.00
47576;DHT22;33304;52.456;13.328;2023-05-19T10:50:42;19.00;1.00
47576;DHT22;33304;52.456;13.328;2023-05-19T10:53:13;18.80;1.00
47576;DHT22;33304;52.456;13.328;2023-05-19T10:55:49;18.80;1.00
47576;DHT22;33304;52.456;13.328;2023-05-19T10:58:37;18.80;1.00
47576;DHT22;33304;52.456;13.328;2023-05-19T11:01:08;18.90;1.00
47576;DHT22;33304;52.456;13.328;2023-05-19T11:03:43;18.90;1.00
47576;DHT22;33304;52.456;13.328;2023-05-19T11:06:35;19.10;1.00
47576;DHT22;33304;52.456;13.328;2023-05-19T11:09:11;19.30;1.00
47576;DHT22;33304;52.456;13.328;2023-05-19T11:11:46;19.20;1.00
47576;DHT22;33304;52.456;13.328;2023-05-19T11:14:17;19.30;1.00
47576;DHT22;33304;52.456;13.328;2023-05-19T11:16:46;19.30;1.00
47576;DHT22;33304;52.456;13.328;2023-05-19T11:19:17;19.30;1.00
47576;DHT22;33304;52.456;13.328;2023-05-19T11:21:49;19.40;1.00
47576;DHT22;33304;52.456;13.328;2023-05-19T11:24:32;19.40;1.00
47576;DHT22;33304;52.456;13.328;2023-05-19T11:27:19;19.70;1.00
47576;DHT22;33304;52.456;13.328;2023-05-19T11:29:49;19.50;1.00
47576;DHT22;33304;52.456;13.328;2023-05-19T11:32:18;19.60;1.00
47576;DHT22;33304;52.456;13.328;2023-05-19T11:34:47;19.40;1.00
47576;DHT22;33304;52.456;13.328;2023-05-19T11:37:14;19.40;1.00
47576;DHT22;33304;52.456;13.328;2023-05-19T11:39:42;19.50;1.00
47576;DHT22;33304;52.456;13.328;2023-05-19T11:42:10;19.50;1.00
47576;DHT22;33304;52.456;13.328;2023-05-19T11:44:37;19.50;1.00
47576;DHT22;33304;52.456;13.328;2023-05-19T11:47:07;19.70;1.00
47576;DHT22;33304;52.456;13.328;2023-05-19T11:49:34;19.80;1.00
47576;DHT22;33304;52.456;13.328;2023-05-19T11:52:02;20.00;1.00
47576;DHT22;33304;52.456;13.328;2023-05-19T11:54:31;20.30;1.00
47576;DHT22;33304;52.456;13.328;2023-05-19T11:56:59;20.50;1.00
47576;DHT22;33304;52.456;13.328;2023-05-19T11:59:31;20.30;1.00
47576;DHT22;33304;52.456;13.328;2023-05-19T12:02:15;19.80;1.00
47576;DHT22;33304;52.456;13.328;2023-05-19T12:04:44;19.40;1.00
47576;DHT22;33304;52.456;13.328;2023-05-19T12:07:11;19.20;1.00
47576;DHT22;33304;52.456;13.328;2023-05-19T12:09:40;19.30;1.00
47576;DHT22;33304;52.456;13.328;2023-05-19T12:12:07;19.50;1.00
47576;DHT22;33304;52.456;13.328;2023-05-19T12:14:34;19.90;1.00
47576;DHT22;33304;52.456;13.328;2023-05-19T12:17:09;20.10;1.00
47576;DHT22;33304;52.456;13.328;2023-05-19T12:19:39;20.10;1.00
47576;DHT22;33304;52.456;13.328;2023-05-19T12:22:08;19.90;1.00
47576;DHT22;33304;52.456;13.328;2023-05-19T12:24:36;20.00;1.00
47576;DHT22;33304;52.456;13.328;2023-05-19T12:27:05;20.40;1.00
47576;DHT22;33304;52.456;13.328;2023-05-19T12:29:33;20.70;1.00
47576;DHT22;33304;52.456;13.328;2023-05-19T12:32:03;20.80;1.00
47576;DHT22;33304;52.456;13.328;2023-05-19T12:34:35;20.80;1.00
47576;DHT22;33304;52.456;13.328;2023-05-19T12:37:09;20.70;1.00
47576;DHT22;33304;52.456;13.328;2023-05-19T12:39:40;20.90;1.00
47576;DHT22;33304;52.456;13.328;2023-05-19T12:42:09;20.80;1.00
47576;DHT22;33304;52.456;13.328;2023-05-19T12:44:37;20.40;1.00
47576;DHT22;33304;52.456;13.328;2023-05-19T12:47:05;20.00;1.00
47576;DHT22;33304;52.456;13.328;2023-05-19T12:49:33;20.00;1.00
47576;DHT22;33304;52.456;13.328;2023-05-19T12:52:00;19.80;1.00
47576;DHT22;33304;52.456;13.328;2023-05-19T12:54:33;20.40;1.00
47576;DHT22;33304;52.456;13.328;2023-05-19T12:57:05;21.50;1.00
47576;DHT22;33304;52.456;13.328;2023-05-19T12:59:35;21.70;1.00
47576;DHT22;33304;52.456;13.328;2023-05-19T13:02:03;21.40;1.00
47576;DHT22;33304;52.456;13.328;2023-05-19T13:04:30;21.70;1.00
47576;DHT22;33304;52.456;13.328;2023-05-19T13:06:57;22.30;1.00
47576;DHT22;33304;52.456;13.328;2023-05-19T13:09:24;22.40;1.00
47576;DHT22;33304;52.456;13.328;2023-05-19T13:11:54;21.90;1.00
47576;DHT22;33304;52.456;13.328;2023-05-19T13:14:22;21.80;1.00
47576;DHT22;33304;52.456;13.328;2023-05-19T13:16:52;22.50;1.00
47576;DHT22;33304;52.456;13.328;2023-05-19T13:19:19;23.20;1.00
47576;DHT22;33304;52.456;13.328;2023-05-19T13:21:47;23.80;1.00
47576;DHT22;33304;52.456;13.328;2023-05-19T13:24:17;24.20;1.00
47576;DHT22;33304;52.456;13.328;2023-05-19T13:26:48;24.50;1.00
47576;DHT22;33304;52.456;13.328;2023-05-19T13:29:16;24.20;1.00
47576;DHT22;33304;52.456;13.328;2023-05-19T13:31:46;23.00;1.00
47576;DHT22;33304;52.456;13.328;2023-05-19T13:34:13;22.30;1.00
47576;DHT22;33304;52.456;13.328;2023-05-19T13:36:41;22.30;1.00
47576;DHT22;33304;52.456;13.328;2023-05-19T13:39:12;21.30;1.00
47576;DHT22;33304;52.456;13.328;2023-05-19T13:41:40;20.80;1.00
47576;DHT22;33304;52.456;13.328;2023-05-19T13:44:07;20.60;1.00
47576;DHT22;33304;52.456;13.328;2023-05-19T13:46:39;20.60;1.00
47576;DHT22;33304;52.456;13.328;2023-05-19T13:49:06;20.80;1.00
47576;DHT22;33304;52.456;13.328;2023-05-19T13:51:35;21.50;1.00
47576;DHT22;33304;52.456;13.328;2023-05-19T13:54:02;21.70;1.00
47576;DHT22;33304;52.456;13.328;2023-05-19T13:56:29;21.60;1.00
47576;DHT22;33304;52.456;13.328;2023-05-19T13:58:57;21.40;1.00
47576;DHT22;33304;52.456;13.328;2023-05-19T14:01:24;21.60;1.00
47576;DHT22;33304;52.456;13.328;2023-05-19T14:03:56;21.90;1.00
47576;DHT22;33304;52.456;13.328;2023-05-19T14:06:23;21.90;1.00
47576;DHT22;33304;52.456;13.328;2023-05-19T14:08:50;21.50;1.00
47576;DHT22;33304;52.456;13.328;2023-05-19T14:11:17;21.20;1.00
47576;DHT22;33304;52.456;13.328;2023-05-19T14:13:47;20.90;1.00
47576;DHT22;33304;52.456;13.328;2023-05-19T14:16:14;20.60;1.00
47576;DHT22;33304;52.456;13.328;2023-05-19T14:18:41;20.30;1.00
47576;DHT22;33304;52.456;13.328;2023-05-19T14:21:10;20.50;1.00
47576;DHT22;33304;52.456;13.328;2023-05-19T14:23:37;20.80;1.00
47576;DHT22;33304;52.456;13.328;2023-05-19T14:26:04;20.60;1.00
47576;DHT22;33304;52.456;13.328;2023-05-19T14:28:31;20.30;1.00
47576;DHT22;33304;52.456;13.328;2023-05-19T14:30:58;19.90;1.00
47576;DHT22;33304;52.456;13.328;2023-05-19T14:33:25;20.00;1.00
47576;DHT22;33304;52.456;13.328;2023-05-19T14:35:52;20.30;1.00
47576;DHT22;33304;52.456;13.328;2023-05-19T14:38:26;21.20;1.00
47576;DHT22;33304;52.456;13.328;2023-05-19T14:40:53;21.00;1.00
47576;DHT22;33304;52.456;13.328;2023-05-19T14:43:20;20.80;1.00
47576;DHT22;33304;52.456;13.328;2023-05-19T14:45:47;20.70;1.00
47576;DHT22;33304;52.456;13.328;2023-05-19T14:48:14;21.50;1.00
47576;DHT22;33304;52.456;13.328;2023-05-19T14:50:41;22.50;1.00
47576;DHT22;33304;52.456;13.328;2023-05-19T14:53:09;22.90;1.00
47576;DHT22;33304;52.456;13.328;2023-05-19T14:55:37;22.10;1.00
47576;DHT22;33304;52.456;13.328;2023-05-19T14:58:04;21.20;1.00
47576;DHT22;33304;52.456;13.328;2023-05-19T15:00:32;20.60;1.00
47576;DHT22;33304;52.456;13.328;2023-05-19T15:02:59;20.20;1.00
47576;DHT22;33304;52.456;13.328;2023-05-19T15:05:26;20.10;1.00
47576;DHT22;33304;52.456;13.328;2023-05-19T15:07:53;19.70;1.00
47576;DHT22;33304;52.456;13.328;2023-05-19T15:10:20;19.70;1.00
47576;DHT22;33304;52.456;13.328;2023-05-19T15:12:48;19.70;1.00
47576;DHT22;33304;52.456;13.328;2023-05-19T15:15:15;19.70;1.00
47576;DHT22;33304;52.456;13.328;2023-05-19T15:17:43;20.40;1.00
47576;DHT22;33304;52.456;13.328;2023-05-19T15:20:11;21.20;1.00
47576;DHT22;33304;52.456;13.328;2023-05-19T15:22:38;22.00;1.00
47576;DHT22;33304;52.456;13.328;2023-05-19T15:25:07;22.30;1.00
47576;DHT22;33304;52.456;13.328;2023-05-19T15:27:34;22.20;1.00
47576;DHT22;33304;52.456;13.328;2023-05-19T15:30:04;21.40;1.00
47576;DHT22;33304;52.456;13.328;2023-05-19T15:32:31;20.80;1.00
47576;DHT22;33304;52.456;13.328;2023-05-19T15:34:58;20.60;1.00
47576;DHT22;33304;52.456;13.328;2023-05-19T15:37:25;20.20;1.00
47576;DHT22;33304;52.456;13.328;2023-05-19T15:39:52;19.90;1.00